Irons, Michigan
Current Conditions -  °F | °C
As of 2:35 AM on Wednesday 22 Oct 2014 (Local Time) from KMBL Reporting Station
Clear Clear  
Wind Chill: 27°   Ceiling: Unl
Heat Index: 27°   Visibility: 10mi
Dew Point: 25°   Wind: 0mph
Humidity: 93%   Direction: NA
Pressure: 30.32"   Gusts: NA
Location:  44.14°N, 85.92°W
Report Text: KMBL 220635Z AUTO 00000KT 10SM CLR M03/M04 A3032 RMK AO1
Loading
Personal Weather Stations






























Interactive Weather Map
Tropical Storm Tracking
New forecast layout! Learn more

10-Day Weather Forecast

Advertisements
Track Severe Weather on mobile